createdAt,value
2023-04-02T00:02:30.871Z,8.38
2023-04-02T00:08:23.711Z,8.35
2023-04-02T00:10:54.299Z,8.36
2023-04-02T00:13:35.561Z,8.35
2023-04-02T00:16:09.145Z,8.36
2023-04-02T00:18:46.217Z,8.35
2023-04-02T00:21:22.381Z,8.34
2023-04-02T00:23:50.664Z,8.33
2023-04-02T00:26:30.379Z,8.32
2023-04-02T00:28:59.714Z,8.30
2023-04-02T00:31:32.497Z,8.28
2023-04-02T00:34:03.880Z,8.24
2023-04-02T00:36:35.042Z,8.21
2023-04-02T00:39:08.745Z,8.21
2023-04-02T00:41:38.961Z,8.19
2023-04-02T00:44:07.339Z,8.16
2023-04-02T00:46:47.050Z,8.13
2023-04-02T00:49:26.075Z,8.14
2023-04-02T00:51:58.241Z,8.15
2023-04-02T00:54:31.359Z,8.14
2023-04-02T00:57:03.114Z,8.13
2023-04-02T00:59:32.857Z,8.18
2023-04-02T01:02:26.604Z,8.15
2023-04-02T01:04:59.970Z,8.12
2023-04-02T01:10:44.304Z,8.09
2023-04-02T01:13:24.402Z,8.08
2023-04-02T01:15:57.900Z,8.07
2023-04-02T01:18:39.773Z,8.04
2023-04-02T01:21:21.982Z,8.02
2023-04-02T01:24:00.833Z,7.99
2023-04-02T01:26:54.653Z,7.96
2023-04-02T01:29:28.591Z,7.97
2023-04-02T01:32:01.560Z,7.95
2023-04-02T01:34:32.111Z,7.95
2023-04-02T01:37:16.741Z,7.95
2023-04-02T01:40:01.061Z,7.97
2023-04-02T01:42:35.981Z,7.96
2023-04-02T01:45:10.980Z,7.97
2023-04-02T01:47:42.115Z,7.97
2023-04-02T01:50:23.492Z,7.99
2023-04-02T01:52:54.962Z,7.97
2023-04-02T01:55:33.125Z,7.95
2023-04-02T01:58:03.801Z,7.94
2023-04-02T02:00:38.365Z,7.96
2023-04-02T02:03:08.688Z,7.95
2023-04-02T02:05:39.600Z,7.96
2023-04-02T02:08:24.502Z,7.95
2023-04-02T02:10:52.807Z,7.94
2023-04-02T02:13:22.319Z,7.92
2023-04-02T02:15:58.126Z,7.93
2023-04-02T02:18:27.617Z,7.95
2023-04-02T02:20:58.432Z,7.94
2023-04-02T02:23:29.209Z,7.96
2023-04-02T02:25:57.917Z,7.93
2023-04-02T02:28:30.734Z,7.88
2023-04-02T02:31:04.010Z,7.85
2023-04-02T02:33:35.786Z,7.84
2023-04-02T02:36:13.220Z,7.84
2023-04-02T02:38:57.342Z,7.78
2023-04-02T02:41:36.687Z,7.77
2023-04-02T02:44:12.559Z,7.74
2023-04-02T02:46:45.989Z,7.65
2023-04-02T02:49:23.337Z,7.45
2023-04-02T02:51:59.261Z,7.51
2023-04-02T02:54:37.930Z,7.44
2023-04-02T02:57:10.912Z,7.31
2023-04-02T02:59:39.774Z,7.27
2023-04-02T03:02:09.527Z,7.22
2023-04-02T03:04:40.233Z,7.14
2023-04-02T03:07:16.450Z,7.11
2023-04-02T03:09:53.559Z,7.07
2023-04-02T03:12:33.958Z,7.05
2023-04-02T03:15:07.499Z,7.04
2023-04-02T03:17:42.400Z,7.04
2023-04-02T03:20:16.049Z,7.03
2023-04-02T03:22:54.744Z,7.05
2023-04-02T03:25:30.226Z,7.00
2023-04-02T03:28:05.251Z,6.99
2023-04-02T03:30:38.146Z,6.99
2023-04-02T03:33:16.502Z,6.97
2023-04-02T03:35:47.529Z,6.98
2023-04-02T03:38:22.114Z,6.94
2023-04-02T03:41:01.261Z,6.90
2023-04-02T03:43:35.971Z,6.69
2023-04-02T03:46:15.012Z,6.89
2023-04-02T03:48:47.733Z,6.88
2023-04-02T03:51:22.120Z,6.89
2023-04-02T03:56:50.488Z,6.79
2023-04-02T03:59:38.177Z,6.87
2023-04-02T04:02:16.742Z,6.88
2023-04-02T04:04:48.034Z,6.87
2023-04-02T04:07:32.475Z,6.88
2023-04-02T04:10:03.284Z,6.90
2023-04-02T04:12:37.038Z,6.87
2023-04-02T04:15:16.021Z,6.89
2023-04-02T04:17:53.980Z,6.90
2023-04-02T04:20:34.544Z,6.86
2023-04-02T04:23:11.751Z,6.87
2023-04-02T04:25:42.675Z,6.89
2023-04-02T04:28:26.242Z,6.86
2023-04-02T04:31:02.186Z,6.89
2023-04-02T04:33:40.598Z,6.89
2023-04-02T04:36:28.948Z,6.85
2023-04-02T04:39:15.967Z,6.91
2023-04-02T04:41:50.349Z,6.88
2023-04-02T04:44:25.051Z,6.86
2023-04-02T04:47:02.196Z,6.91
2023-04-02T04:49:43.247Z,6.86
2023-04-02T04:52:20.432Z,6.89
2023-04-02T04:54:50.829Z,6.88
2023-04-02T04:57:32.626Z,6.88
2023-04-02T05:00:15.734Z,6.90
2023-04-02T05:02:52.905Z,6.90
2023-04-02T05:05:26.389Z,6.91
2023-04-02T05:08:00.240Z,6.90
2023-04-02T05:10:39.816Z,6.87
2023-04-02T05:13:16.978Z,6.90
2023-04-02T05:15:53.889Z,6.89
2023-04-02T05:18:32.491Z,6.93
2023-04-02T05:21:07.424Z,6.91
2023-04-02T05:23:45.846Z,6.91
2023-04-02T05:26:20.129Z,6.90
2023-04-02T05:28:55.826Z,6.91
2023-04-02T05:31:29.049Z,6.91
2023-04-02T05:33:57.813Z,6.92
2023-04-02T05:36:29.492Z,6.95
2023-04-02T05:39:00.929Z,6.97
2023-04-02T05:41:41.296Z,7.01
2023-04-02T05:44:17.094Z,7.02
2023-04-02T05:46:50.914Z,7.07
2023-04-02T05:49:31.366Z,7.08
2023-04-02T05:52:03.699Z,7.08
2023-04-02T05:54:38.727Z,7.10
2023-04-02T05:57:14.387Z,7.17
2023-04-02T05:59:47.478Z,7.24
2023-04-02T06:02:25.189Z,7.29
2023-04-02T06:05:02.252Z,7.29
2023-04-02T06:07:41.727Z,7.33
2023-04-02T06:10:15.533Z,7.31
2023-04-02T06:12:48.694Z,7.33
2023-04-02T06:15:22.688Z,7.28
2023-04-02T06:18:01.773Z,7.33
2023-04-02T06:20:31.060Z,7.30
2023-04-02T06:23:03.349Z,7.28
2023-04-02T06:25:37.143Z,7.32
2023-04-02T06:28:13.444Z,7.40
2023-04-02T06:30:52.543Z,7.51
2023-04-02T06:33:23.790Z,7.58
2023-04-02T06:35:53.296Z,7.64
2023-04-02T06:38:35.056Z,7.67
2023-04-02T06:41:12.928Z,7.66
2023-04-02T06:43:50.602Z,7.68
2023-04-02T06:46:43.712Z,7.78
2023-04-02T06:49:24.732Z,7.67
2023-04-02T06:52:01.179Z,7.64
2023-04-02T06:54:35.853Z,7.64
2023-04-02T06:57:08.998Z,7.57
2023-04-02T06:59:42.783Z,7.66
2023-04-02T07:02:27.966Z,7.74
2023-04-02T07:05:04.767Z,7.69
2023-04-02T07:07:37.570Z,7.65
2023-04-02T07:10:10.505Z,7.73
2023-04-02T07:12:38.743Z,7.76
2023-04-02T07:15:08.274Z,7.85
2023-04-02T07:17:37.427Z,7.91
2023-04-02T07:20:25.776Z,7.98
2023-04-02T07:22:54.271Z,8.05
2023-04-02T07:25:22.718Z,8.05
2023-04-02T07:27:54.322Z,8.00
2023-04-02T07:30:22.604Z,8.09
2023-04-02T07:32:50.900Z,8.18
2023-04-02T07:35:20.540Z,8.26
2023-04-02T07:37:48.525Z,8.28
2023-04-02T07:40:18.630Z,8.30
2023-04-02T07:42:46.611Z,8.28
2023-04-02T07:45:15.681Z,8.26
2023-04-02T07:47:46.383Z,8.43
2023-04-02T07:50:14.822Z,8.49
2023-04-02T07:52:44.852Z,8.49
2023-04-02T07:55:15.834Z,8.66
2023-04-02T07:57:49.544Z,8.69
2023-04-02T08:00:22.746Z,8.81
2023-04-02T08:02:51.533Z,8.89
2023-04-02T08:05:20.168Z,9.21
2023-04-02T08:07:55.656Z,9.57
2023-04-02T08:10:24.601Z,9.75
2023-04-02T08:12:52.738Z,9.89
2023-04-02T08:15:22.319Z,10.24
2023-04-02T08:17:51.515Z,10.33
2023-04-02T08:20:22.411Z,10.59
2023-04-02T08:22:51.599Z,10.68
2023-04-02T08:25:25.549Z,10.83
2023-04-02T08:28:01.543Z,10.71
2023-04-02T08:30:29.635Z,10.69
2023-04-02T08:32:57.832Z,10.72
2023-04-02T08:35:26.455Z,10.56
2023-04-02T08:37:57.056Z,10.50
2023-04-02T08:40:30.618Z,10.36
2023-04-02T08:43:15.103Z,10.07
2023-04-02T08:45:56.529Z,9.96
2023-04-02T08:48:24.644Z,9.98
2023-04-02T08:50:53.243Z,10.05
2023-04-02T08:53:24.572Z,10.08
2023-04-02T08:57:55.487Z,10.43
2023-04-02T09:00:32.171Z,10.93
2023-04-02T09:03:09.102Z,11.27
2023-04-02T09:05:42.026Z,11.33
2023-04-02T09:08:18.904Z,11.49
2023-04-02T09:10:54.435Z,11.61
2023-04-02T09:13:27.190Z,11.68
2023-04-02T09:16:02.527Z,11.11
2023-04-02T09:18:33.477Z,10.02
2023-04-02T09:21:04.967Z,9.50
2023-04-02T09:23:33.824Z,8.54
2023-04-02T09:26:04.660Z,8.38
2023-04-02T09:28:34.459Z,7.97
2023-04-02T09:31:18.235Z,7.61
2023-04-02T09:33:48.331Z,7.55
2023-04-02T09:36:27.442Z,7.38
2023-04-02T09:39:02.112Z,7.23
2023-04-02T09:41:34.563Z,7.17
2023-04-02T09:44:21.145Z,6.94
2023-04-02T09:46:53.155Z,6.53
2023-04-02T09:49:26.661Z,6.32
2023-04-02T09:52:20.014Z,6.26
2023-04-02T09:54:48.890Z,6.19
2023-04-02T09:57:24.327Z,6.07
2023-04-02T10:00:25.290Z,6.17
2023-04-02T10:03:07.143Z,5.97
2023-04-02T10:08:09.817Z,6.19
2023-04-02T10:10:42.361Z,6.18
2023-04-02T10:13:22.363Z,6.25
2023-04-02T10:15:57.034Z,6.24
2023-04-02T10:18:38.142Z,6.12
2023-04-02T10:21:07.518Z,6.07
2023-04-02T10:23:36.385Z,6.09
2023-04-02T10:26:25.094Z,6.12
2023-04-02T10:29:14.139Z,6.22
2023-04-02T10:31:52.331Z,6.09
2023-04-02T10:34:26.186Z,6.25
2023-04-02T10:36:57.839Z,6.33
2023-04-02T10:39:36.917Z,6.34
2023-04-02T10:42:13.877Z,6.42
2023-04-02T10:44:51.607Z,6.45
2023-04-02T10:47:38.196Z,6.46
2023-04-02T10:50:28.087Z,6.45
2023-04-02T10:53:07.070Z,6.35
2023-04-02T10:55:43.161Z,6.34
2023-04-02T10:58:22.098Z,6.38
2023-04-02T11:00:52.993Z,6.48
2023-04-02T11:03:32.554Z,6.42
2023-04-02T11:06:05.386Z,6.57
2023-04-02T11:08:42.298Z,6.57
2023-04-02T11:11:15.430Z,6.63
2023-04-02T11:13:57.445Z,6.56
2023-04-02T11:16:27.707Z,6.69
2023-04-02T11:19:27.164Z,6.52
2023-04-02T11:22:00.282Z,6.59
2023-04-02T11:24:48.697Z,6.44
2023-04-02T11:27:28.334Z,6.42
2023-04-02T11:30:04.388Z,6.50
2023-04-02T11:32:36.470Z,6.70
2023-04-02T11:35:37.920Z,6.61
2023-04-02T11:38:47.888Z,6.66
2023-04-02T11:41:54.581Z,6.79
2023-04-02T11:44:26.299Z,6.70
2023-04-02T11:47:19.119Z,6.90
2023-04-02T11:50:28.573Z,7.05
2023-04-02T11:53:00.842Z,7.06
2023-04-02T11:55:31.270Z,7.37
2023-04-02T11:58:20.819Z,7.17
2023-04-02T12:01:05.330Z,6.85
2023-04-02T12:03:54.069Z,6.84
2023-04-02T12:06:39.734Z,6.74
2023-04-02T12:09:20.207Z,6.77
2023-04-02T12:11:50.997Z,6.89
2023-04-02T12:14:48.675Z,6.91
2023-04-02T12:17:22.449Z,6.81
2023-04-02T12:19:52.795Z,6.75
2023-04-02T12:22:25.077Z,6.70
2023-04-02T12:24:57.676Z,6.88
2023-04-02T12:27:28.680Z,6.79
2023-04-02T12:29:57.617Z,6.63
2023-04-02T12:32:29.834Z,6.45
2023-04-02T12:35:01.577Z,6.44
2023-04-02T12:37:32.039Z,6.58
2023-04-02T12:40:07.270Z,6.40
2023-04-02T12:42:37.379Z,6.44
2023-04-02T12:45:07.878Z,6.38
2023-04-02T12:47:36.747Z,6.30
2023-04-02T12:50:06.967Z,6.50
2023-04-02T12:52:37.064Z,6.64
2023-04-02T12:55:06.684Z,6.86
2023-04-02T12:57:40.173Z,6.94
2023-04-02T13:00:36.178Z,7.09
2023-04-02T13:03:23.554Z,7.18
2023-04-02T13:05:55.461Z,7.24
2023-04-02T13:08:30.714Z,7.14
2023-04-02T13:11:01.392Z,7.21
2023-04-02T13:13:33.865Z,7.05
2023-04-02T13:16:07.836Z,6.84
2023-04-02T13:18:38.769Z,6.65
2023-04-02T13:21:07.745Z,6.61
2023-04-02T13:23:38.587Z,6.67
2023-04-02T13:26:18.268Z,6.64
2023-04-02T13:28:57.658Z,6.79
2023-04-02T13:31:26.320Z,6.78
2023-04-02T13:33:56.822Z,7.02
2023-04-02T13:36:25.997Z,7.04
2023-04-02T13:38:55.633Z,6.97
2023-04-02T13:41:26.553Z,6.93
2023-04-02T13:43:56.019Z,6.83
2023-04-02T13:46:27.226Z,6.74
2023-04-02T13:48:58.459Z,6.67
2023-04-02T13:51:38.664Z,6.61
2023-04-02T13:54:11.820Z,6.65
2023-04-02T13:58:51.438Z,6.80
2023-04-02T14:01:20.527Z,6.63
2023-04-02T14:03:49.068Z,6.63
2023-04-02T14:06:29.090Z,6.37
2023-04-02T14:09:05.385Z,6.39
2023-04-02T14:11:48.621Z,6.52
2023-04-02T14:14:54.795Z,6.32
2023-04-02T14:17:30.747Z,6.32
2023-04-02T14:20:15.509Z,6.36
2023-04-02T14:22:58.300Z,6.29
2023-04-02T14:25:35.997Z,6.37
2023-04-02T14:28:12.879Z,6.43
2023-04-02T14:30:52.323Z,6.30
2023-04-02T14:33:33.796Z,6.35
2023-04-02T14:36:14.088Z,6.28
2023-04-02T14:38:52.272Z,6.20
2023-04-02T14:41:26.821Z,6.17
2023-04-02T14:43:59.286Z,6.04
2023-04-02T14:46:31.717Z,5.82
2023-04-02T14:49:04.444Z,5.79
2023-04-02T14:51:38.529Z,5.70
2023-04-02T14:54:12.999Z,5.75
2023-04-02T14:56:47.000Z,5.86
2023-04-02T14:59:28.496Z,5.82
2023-04-02T15:02:02.737Z,5.81
2023-04-02T15:04:36.129Z,5.75
2023-04-02T15:07:11.462Z,5.87
2023-04-02T15:09:45.828Z,5.77
2023-04-02T15:12:21.464Z,5.74
2023-04-02T15:14:56.768Z,5.70
2023-04-02T15:17:28.541Z,5.79
2023-04-02T15:20:03.434Z,5.71
2023-04-02T15:22:38.646Z,5.61
2023-04-02T15:25:18.026Z,5.60
2023-04-02T15:28:08.480Z,5.64
2023-04-02T15:30:38.993Z,5.60
2023-04-02T15:33:39.743Z,5.54
2023-04-02T15:36:47.867Z,5.59
2023-04-02T15:39:37.067Z,5.59
2023-04-02T15:42:18.915Z,5.47
2023-04-02T15:45:11.120Z,5.35
2023-04-02T15:47:45.747Z,5.35
2023-04-02T15:50:31.526Z,5.44
2023-04-02T15:53:10.856Z,5.43
2023-04-02T15:55:45.465Z,5.43
2023-04-02T15:58:28.707Z,5.36
2023-04-02T16:01:10.717Z,5.34
2023-04-02T16:04:01.469Z,5.27
2023-04-02T16:06:36.057Z,5.18
2023-04-02T16:09:16.771Z,5.15
2023-04-02T16:11:44.936Z,5.10
2023-04-02T16:14:27.878Z,5.03
2023-04-02T16:17:03.827Z,5.02
2023-04-02T16:19:43.197Z,4.94
2023-04-02T16:22:19.510Z,4.90
2023-04-02T16:24:54.607Z,4.86
2023-04-02T16:27:30.558Z,4.85
2023-04-02T16:30:09.458Z,4.78
2023-04-02T16:32:53.683Z,4.85
2023-04-02T16:35:42.739Z,4.77
2023-04-02T16:38:26.127Z,4.75
2023-04-02T16:41:08.480Z,4.61
2023-04-02T16:43:50.530Z,4.60
2023-04-02T16:46:38.971Z,4.58
2023-04-02T16:49:19.945Z,4.60
2023-04-02T16:52:01.479Z,4.55
2023-04-02T16:54:37.001Z,4.58
2023-04-02T16:57:19.525Z,4.53
2023-04-02T16:59:59.943Z,4.55
2023-04-02T17:02:43.311Z,4.56
2023-04-02T17:05:19.420Z,4.52
2023-04-02T17:08:01.664Z,4.55
2023-04-02T17:10:34.452Z,4.55
2023-04-02T17:13:19.385Z,4.52
2023-04-02T17:15:55.027Z,4.49
2023-04-02T17:18:24.679Z,4.53
2023-04-02T17:21:03.577Z,4.49
2023-04-02T17:23:55.372Z,4.49
2023-04-02T17:26:29.020Z,4.49
2023-04-02T17:29:01.491Z,4.45
2023-04-02T17:31:34.221Z,4.44
2023-04-02T17:34:10.769Z,4.41
2023-04-02T17:36:48.104Z,4.40
2023-04-02T17:39:23.014Z,4.32
2023-04-02T17:41:57.843Z,4.31
2023-04-02T17:44:47.462Z,4.27
2023-04-02T17:47:21.854Z,4.23
2023-04-02T17:50:06.079Z,4.22
2023-04-02T17:52:41.170Z,4.18
2023-04-02T17:55:23.283Z,4.20
2023-04-02T17:58:05.409Z,4.18
2023-04-02T18:00:47.210Z,4.18
2023-04-02T18:03:31.194Z,4.22
2023-04-02T18:06:05.949Z,4.23
2023-04-02T18:08:45.072Z,4.19
2023-04-02T18:11:21.318Z,4.09
2023-04-02T18:13:59.702Z,4.19
2023-04-02T18:16:46.806Z,4.17
2023-04-02T18:19:20.214Z,4.13
2023-04-02T18:21:52.317Z,4.11
2023-04-02T18:25:05.476Z,4.08
2023-04-02T18:27:52.326Z,4.10
2023-04-02T18:30:28.792Z,4.07
2023-04-02T18:33:23.131Z,4.08
2023-04-02T18:35:59.905Z,4.06
2023-04-02T18:38:36.043Z,4.06
2023-04-02T18:41:17.113Z,4.07
2023-04-02T18:43:58.952Z,4.05
2023-04-02T18:46:38.639Z,4.07
2023-04-02T18:49:21.102Z,4.00
2023-04-02T18:51:53.711Z,4.00
2023-04-02T18:54:30.692Z,4.01
2023-04-02T19:00:00.516Z,3.98
2023-04-02T19:02:40.573Z,3.99
2023-04-02T19:05:21.983Z,4.00
2023-04-02T19:07:55.650Z,4.00
2023-04-02T19:10:30.876Z,3.98
2023-04-02T19:12:59.033Z,3.95
2023-04-02T19:15:40.744Z,3.97
2023-04-02T19:18:14.887Z,3.99
2023-04-02T19:20:47.577Z,3.96
2023-04-02T19:23:34.358Z,3.97
2023-04-02T19:26:07.855Z,3.92
2023-04-02T19:28:44.365Z,3.90
2023-04-02T19:31:27.857Z,3.91
2023-04-02T19:34:04.580Z,3.91
2023-04-02T19:36:55.012Z,3.90
2023-04-02T19:39:58.829Z,3.87
2023-04-02T19:42:45.717Z,3.86
2023-04-02T19:45:33.252Z,3.80
2023-04-02T19:48:13.079Z,3.81
2023-04-02T19:50:44.317Z,3.78
2023-04-02T19:53:15.527Z,3.78
2023-04-02T19:55:45.035Z,3.76
2023-04-02T19:58:21.873Z,3.76
2023-04-02T20:00:49.995Z,3.76
2023-04-02T20:03:19.786Z,3.74
2023-04-02T20:05:48.589Z,3.74
2023-04-02T20:08:17.369Z,3.73
2023-04-02T20:10:46.320Z,3.72
2023-04-02T20:13:14.983Z,3.77
2023-04-02T20:15:45.871Z,3.70
2023-04-02T20:18:16.954Z,3.73
2023-04-02T20:20:48.376Z,3.73
2023-04-02T20:23:17.752Z,3.72
2023-04-02T20:25:47.457Z,3.72
2023-04-02T20:28:15.762Z,3.71
2023-04-02T20:30:44.312Z,3.72
2023-04-02T20:33:12.666Z,3.70
2023-04-02T20:35:43.360Z,3.55
2023-04-02T20:38:13.185Z,3.65
2023-04-02T20:40:42.578Z,3.64
2023-04-02T20:43:11.619Z,3.65
2023-04-02T20:45:39.603Z,3.62
2023-04-02T20:48:08.151Z,3.63
2023-04-02T20:50:37.395Z,3.60
2023-04-02T20:53:07.855Z,3.58
2023-04-02T20:55:37.535Z,3.51
2023-04-02T20:58:06.039Z,3.49
2023-04-02T21:00:36.618Z,3.50
2023-04-02T21:03:05.612Z,3.46
2023-04-02T21:05:33.952Z,3.45
2023-04-02T21:08:04.055Z,3.46
2023-04-02T21:10:32.420Z,3.41
2023-04-02T21:13:01.839Z,3.46
2023-04-02T21:15:31.947Z,3.40
2023-04-02T21:18:00.335Z,3.39
2023-04-02T21:20:31.942Z,3.43
2023-04-02T21:23:00.226Z,3.43
2023-04-02T21:25:28.353Z,3.42
2023-04-02T21:27:56.756Z,3.39
2023-04-02T21:30:29.167Z,3.42
2023-04-02T21:32:58.887Z,3.39
2023-04-02T21:35:27.124Z,3.39
2023-04-02T21:37:55.953Z,3.39
2023-04-02T21:40:27.033Z,3.38
2023-04-02T21:42:55.768Z,3.37
2023-04-02T21:45:23.769Z,3.35
2023-04-02T21:47:53.521Z,3.43
2023-04-02T21:50:21.633Z,3.42
2023-04-02T21:52:50.005Z,3.44
2023-04-02T21:55:18.314Z,3.41
2023-04-02T21:57:46.389Z,3.40
2023-04-02T22:00:17.458Z,3.38
2023-04-02T22:02:45.946Z,3.38
2023-04-02T22:05:15.716Z,3.44
2023-04-02T22:07:46.344Z,3.45
2023-04-02T22:10:15.122Z,3.42
2023-04-02T22:12:43.842Z,3.40
2023-04-02T22:15:12.776Z,3.43
2023-04-02T22:17:40.833Z,3.39
2023-04-02T22:20:10.805Z,3.39
2023-04-02T22:22:40.311Z,3.46
2023-04-02T22:25:09.314Z,3.49
2023-04-02T22:27:37.500Z,3.49
2023-04-02T22:30:06.886Z,3.48
2023-04-02T22:32:34.982Z,3.44
2023-04-02T22:35:03.151Z,3.46
2023-04-02T22:37:33.935Z,3.52
2023-04-02T22:40:07.935Z,3.47
2023-04-02T22:42:38.302Z,3.50
2023-04-02T22:45:09.948Z,3.46
2023-04-02T22:47:37.967Z,3.46
2023-04-02T22:50:09.179Z,3.44
2023-04-02T22:52:37.338Z,3.49
2023-04-02T22:55:09.074Z,3.47
2023-04-02T22:57:37.143Z,3.50
2023-04-02T23:00:06.678Z,3.48
2023-04-02T23:02:35.060Z,3.47
2023-04-02T23:05:06.217Z,3.45
2023-04-02T23:07:35.411Z,3.47
2023-04-02T23:10:04.684Z,3.45
2023-04-02T23:12:35.313Z,3.45
2023-04-02T23:15:05.630Z,3.43
2023-04-02T23:17:33.714Z,3.36
2023-04-02T23:20:01.893Z,3.28
2023-04-02T23:22:30.003Z,3.14
2023-04-02T23:24:58.100Z,2.99
2023-04-02T23:27:28.360Z,2.89
2023-04-02T23:30:02.777Z,2.69
2023-04-02T23:32:31.572Z,2.55
2023-04-02T23:34:59.711Z,2.50
2023-04-02T23:37:27.800Z,2.34
2023-04-02T23:39:56.181Z,2.18
2023-04-02T23:42:25.584Z,2.01
2023-04-02T23:44:57.419Z,1.95
2023-04-02T23:47:27.209Z,1.91
2023-04-02T23:49:55.226Z,1.84
2023-04-02T23:52:23.402Z,1.88
2023-04-02T23:54:53.635Z,1.84
